createdAt,value
2023-03-18T00:01:23.778Z,7.10
2023-03-18T00:07:26.144Z,7.10
2023-03-18T00:13:28.497Z,7.10
2023-03-18T00:19:30.849Z,7.00
2023-03-18T00:25:33.219Z,7.00
2023-03-18T00:31:36.170Z,7.00
2023-03-18T00:37:38.822Z,7.00
2023-03-18T00:43:47.486Z,6.90
2023-03-18T00:49:50.521Z,6.90
2023-03-18T00:55:53.511Z,6.80
2023-03-18T01:01:56.025Z,6.80
2023-03-18T01:07:59.205Z,6.80
2023-03-18T01:14:01.962Z,6.80
2023-03-18T01:20:04.596Z,6.70
2023-03-18T01:26:07.473Z,6.70
2023-03-18T01:32:11.535Z,6.70
2023-03-18T01:38:14.339Z,6.70
2023-03-18T01:44:21.225Z,6.60
2023-03-18T01:50:31.352Z,6.60
2023-03-18T01:56:37.378Z,6.60
2023-03-18T02:02:41.347Z,6.50
2023-03-18T02:08:44.375Z,6.50
2023-03-18T02:14:47.045Z,6.50
2023-03-18T02:20:49.307Z,6.50
2023-03-18T02:27:23.346Z,6.40
2023-03-18T02:33:31.302Z,6.50
2023-03-18T02:39:34.520Z,6.50
2023-03-18T02:45:46.371Z,6.50
2023-03-18T02:51:50.701Z,6.50
2023-03-18T02:57:53.191Z,6.50
2023-03-18T03:03:56.731Z,6.40
2023-03-18T03:09:59.251Z,6.50
2023-03-18T03:16:02.866Z,6.50
2023-03-18T03:22:05.591Z,6.60
2023-03-18T03:28:09.076Z,6.60
2023-03-18T03:34:12.233Z,6.60
2023-03-18T03:40:17.277Z,6.60
2023-03-18T03:46:19.722Z,6.60
2023-03-18T03:52:22.234Z,6.60
2023-03-18T03:58:26.022Z,6.50
2023-03-18T04:04:29.487Z,6.50
2023-03-18T04:10:35.050Z,6.50
2023-03-18T04:16:37.819Z,6.60
2023-03-18T04:22:40.925Z,6.60
2023-03-18T04:28:45.541Z,6.70
2023-03-18T04:34:50.985Z,6.80
2023-03-18T04:40:53.615Z,6.90
2023-03-18T04:46:56.017Z,7.10
2023-03-18T04:53:00.487Z,7.30
2023-03-18T04:59:05.624Z,7.70
2023-03-18T05:05:09.609Z,10.00
2023-03-18T05:11:17.829Z,13.20
2023-03-18T05:17:21.769Z,16.40
2023-03-18T05:23:34.772Z,16.10
2023-03-18T05:29:38.803Z,15.20
2023-03-18T05:35:47.573Z,16.00
2023-03-18T05:41:52.811Z,18.20
2023-03-18T05:48:00.457Z,21.00
2023-03-18T05:54:05.169Z,21.50
2023-03-18T06:00:13.741Z,22.40
2023-03-18T06:06:20.158Z,21.60
2023-03-18T06:12:27.726Z,24.60
2023-03-18T06:18:30.417Z,26.00
2023-03-18T06:24:33.056Z,25.00
2023-03-18T06:30:35.673Z,25.00
2023-03-18T06:36:38.154Z,26.80
2023-03-18T06:42:45.094Z,28.20
2023-03-18T06:48:54.979Z,27.90
2023-03-18T06:55:04.698Z,28.20
2023-03-18T07:01:08.559Z,27.70
2023-03-18T07:07:19.721Z,25.40
2023-03-18T07:13:22.290Z,26.40
2023-03-18T07:19:24.635Z,28.40
2023-03-18T07:25:27.248Z,27.80
2023-03-18T07:31:31.102Z,27.70
2023-03-18T07:37:33.935Z,26.10
2023-03-18T07:43:37.462Z,26.50
2023-03-18T07:49:39.892Z,28.00
2023-03-18T07:55:42.413Z,28.10
2023-03-18T08:01:45.398Z,27.20
2023-03-18T08:07:47.780Z,27.90
2023-03-18T08:13:50.438Z,28.30
2023-03-18T08:19:52.693Z,27.80
2023-03-18T08:25:55.295Z,26.00
2023-03-18T08:31:58.141Z,27.00
2023-03-18T08:38:01.016Z,28.20
2023-03-18T08:44:06.752Z,28.70
2023-03-18T08:50:09.746Z,28.70
2023-03-18T08:56:13.500Z,29.70
2023-03-18T09:02:18.987Z,28.70
2023-03-18T09:08:22.577Z,29.00
2023-03-18T09:14:24.795Z,28.30
2023-03-18T09:20:27.418Z,27.90
2023-03-18T09:26:29.675Z,27.90
2023-03-18T09:32:31.902Z,27.60
2023-03-18T09:38:34.192Z,28.00
2023-03-18T09:44:37.234Z,26.80
2023-03-18T09:51:05.886Z,25.90
2023-03-18T09:57:23.140Z,26.10
2023-03-18T10:03:36.464Z,25.10
2023-03-18T10:09:48.974Z,23.10
2023-03-18T10:15:57.091Z,23.30
2023-03-18T10:22:10.038Z,24.50
2023-03-18T10:28:57.056Z,25.30
2023-03-18T10:35:34.960Z,23.70
2023-03-18T10:41:38.853Z,24.80
2023-03-18T10:47:45.218Z,23.10
2023-03-18T10:53:59.448Z,24.20
2023-03-18T11:00:01.864Z,26.20
2023-03-18T11:06:05.228Z,23.00
2023-03-18T11:12:14.556Z,24.20
2023-03-18T11:18:21.386Z,25.10
2023-03-18T11:24:36.617Z,26.60
2023-03-18T11:30:57.177Z,26.70
2023-03-18T11:37:04.875Z,24.30
2023-03-18T11:43:18.961Z,24.80
2023-03-18T11:49:24.024Z,24.00
2023-03-18T11:55:32.285Z,25.40
2023-03-18T12:01:42.571Z,24.90
2023-03-18T12:08:01.351Z,24.70
2023-03-18T12:14:34.898Z,24.30
2023-03-18T12:21:15.708Z,22.00
2023-03-18T12:27:38.303Z,18.20
2023-03-18T12:33:57.128Z,16.30
2023-03-18T12:40:06.691Z,15.70
2023-03-18T12:46:30.855Z,14.10
2023-03-18T12:52:45.576Z,12.80
2023-03-18T12:59:08.036Z,12.40
2023-03-18T13:05:33.632Z,12.10
2023-03-18T13:11:51.265Z,11.70
2023-03-18T13:17:58.934Z,11.90
2023-03-18T13:24:14.063Z,11.50
2023-03-18T13:30:31.541Z,11.60
2023-03-18T13:36:47.213Z,11.30
2023-03-18T13:42:51.239Z,11.70
2023-03-18T13:49:02.040Z,11.50
2023-03-18T13:55:28.090Z,11.50
2023-03-18T14:01:33.613Z,11.60
2023-03-18T14:07:47.209Z,11.60
2023-03-18T14:13:54.809Z,11.50
2023-03-18T14:19:57.483Z,11.20
2023-03-18T14:26:18.276Z,11.00
2023-03-18T14:32:23.510Z,11.10
2023-03-18T14:38:52.919Z,10.80
2023-03-18T14:45:00.775Z,10.70
2023-03-18T14:51:12.118Z,10.50
2023-03-18T14:57:14.516Z,10.20
2023-03-18T15:03:35.190Z,9.90
2023-03-18T15:09:38.555Z,9.70
2023-03-18T15:15:42.439Z,9.90
2023-03-18T15:21:45.502Z,9.70
2023-03-18T15:27:48.622Z,9.60
2023-03-18T15:34:16.429Z,9.50
2023-03-18T15:40:29.100Z,9.50
2023-03-18T15:46:32.713Z,9.60
2023-03-18T15:52:40.730Z,9.40
2023-03-18T15:58:45.159Z,9.30
2023-03-18T16:04:48.821Z,9.30
2023-03-18T16:10:54.096Z,9.30
2023-03-18T16:16:56.864Z,9.30
2023-03-18T16:23:00.023Z,9.20
2023-03-18T16:29:02.830Z,9.20
2023-03-18T16:35:05.186Z,9.10
2023-03-18T16:41:08.254Z,9.10
2023-03-18T16:47:30.658Z,9.00
2023-03-18T16:53:33.547Z,8.80
2023-03-18T16:59:37.283Z,8.80
2023-03-18T17:05:40.215Z,8.80
2023-03-18T17:11:43.793Z,8.70
2023-03-18T17:17:47.787Z,8.70
2023-03-18T17:23:50.465Z,8.70
2023-03-18T17:29:53.767Z,8.70
2023-03-18T17:35:57.349Z,8.60
2023-03-18T17:42:00.153Z,8.60
2023-03-18T17:48:26.265Z,8.60
2023-03-18T17:54:31.699Z,8.60
2023-03-18T18:00:34.312Z,8.60
2023-03-18T18:06:36.957Z,8.50
2023-03-18T18:12:39.333Z,8.60
2023-03-18T18:18:42.066Z,8.60
2023-03-18T18:24:47.175Z,8.60
2023-03-18T18:30:50.460Z,8.70
2023-03-18T18:36:52.918Z,8.70
2023-03-18T18:42:55.455Z,8.70
2023-03-18T18:48:57.973Z,8.80
2023-03-18T18:55:00.839Z,8.80
2023-03-18T19:01:03.172Z,8.80
2023-03-18T19:07:06.893Z,8.80
2023-03-18T19:13:14.225Z,8.90
2023-03-18T19:19:19.839Z,8.90
2023-03-18T19:25:22.257Z,8.80
2023-03-18T19:31:27.145Z,8.70
2023-03-18T19:37:32.648Z,8.70
2023-03-18T19:43:35.298Z,8.70
2023-03-18T19:49:39.549Z,8.60
2023-03-18T19:55:42.691Z,8.70
2023-03-18T20:01:45.024Z,8.70
2023-03-18T20:07:47.345Z,8.70
2023-03-18T20:13:49.582Z,8.70
2023-03-18T20:19:51.977Z,8.70
2023-03-18T20:25:54.622Z,8.70
2023-03-18T20:31:59.334Z,8.70
2023-03-18T20:38:09.766Z,8.80
2023-03-18T20:44:13.410Z,8.70
2023-03-18T20:50:21.496Z,8.60
2023-03-18T20:56:24.147Z,8.50
2023-03-18T21:02:32.431Z,8.50
2023-03-18T21:08:34.681Z,8.50
2023-03-18T21:14:37.707Z,8.60
2023-03-18T21:20:40.350Z,8.60
2023-03-18T21:26:51.353Z,8.60
2023-03-18T21:33:30.006Z,8.50
2023-03-18T21:39:32.869Z,8.60
2023-03-18T21:45:35.230Z,8.50
2023-03-18T21:51:40.142Z,8.60
2023-03-18T21:57:43.417Z,8.60
2023-03-18T22:03:47.788Z,8.60
2023-03-18T22:09:50.021Z,8.60
2023-03-18T22:15:53.623Z,8.50
2023-03-18T22:21:55.865Z,8.50
2023-03-18T22:27:59.284Z,8.50
2023-03-18T22:34:01.678Z,8.40
2023-03-18T22:40:04.740Z,8.40
2023-03-18T22:46:09.570Z,8.30
2023-03-18T22:52:23.693Z,8.30
2023-03-18T22:58:27.994Z,8.20
2023-03-18T23:04:30.955Z,8.00
2023-03-18T23:10:33.849Z,7.90
2023-03-18T23:16:35.880Z,7.80
2023-03-18T23:22:38.232Z,7.70
2023-03-18T23:28:44.923Z,7.50
2023-03-18T23:34:48.099Z,7.50
2023-03-18T23:40:50.246Z,7.30
2023-03-18T23:46:52.928Z,7.20
2023-03-18T23:52:55.076Z,7.10
2023-03-18T23:58:57.455Z,6.90
